Ergebnisliste vom: 11.06.2006 - Schlo▀triathlon Moritzburg2006 - mittel-Staffel

weitere Ergebnisse >>

Plg. Plm Plw StNr. Starter 1 Starter 2 Starter 3 Verein Endzeit Schwim. Rad Lauf RŘckst.
1 1   171 Tina Petzold Maik Petzold Reinhard Petzold BLV Bautzen 4:15:48 0:31:33( 7 ) 2:24:01( 1 ) 1:20:14( 3 ) 0:00:00
2 2   175 Bernd Dander Sebastian Liepke Andre St├╝bner Tretm├╝hle 4:21:33 0:32:18( 9 ) 2:30:21( 5 ) 1:18:54( 2 ) 0:05:45
3 3   164 Andr├ę Zais Steffen Greier Paul Schmidt   4:27:29 0:32:57( 12 ) 2:38:22( 10 ) 1:16:10( 1 ) 0:11:41
4 4   166 Frank Kaube Kersten Krause Torsten Pawel die 3 Unfertigen 4:33:47 0:34:08( 16 ) 2:27:08( 2 ) 1:32:31( 9 ) 0:17:59
5 5   157 Meinhard Bartsch Uwe Schneider Stefan Schneider Turbine 30 Plus 4:38:16 0:30:03( 3 ) 2:34:06( 7 ) 1:34:07( 11 ) 0:22:28
6 6   165 Gunda St├╝bler Steffen Schenk Milan Scholze Rio Trio 4:40:22 0:33:32( 13 ) 2:38:51( 11 ) 1:27:59( 5 ) 0:24:34
7 7   153 Mario Kie├člich Carsten Ringel Grit Zientek Triathlon Team Niederschlesien 4:40:28 0:43:03( 26 ) 2:32:53( 6 ) 1:24:32( 4 ) 0:24:40
8 8   160 Andreas Horn Martin Schultz Adam Tyblewski   4:42:01 0:31:04( 5 ) 2:29:24( 3 ) 1:41:33( 19 ) 0:26:13
9 9   167 Alexander Herrmann Albrecht Herrmann Ralph Sch├╝cke Team Trade Invest 4:43:06 0:34:02( 15 ) 2:38:03( 9 ) 1:31:01( 7 ) 0:27:18
10 10   162 Jochen Franz Marco Sesselmann Stefan R├╝hr RVC-Altenkunstadt - Speed 4:44:24 0:39:50( 21 ) 2:36:08( 8 ) 1:28:26( 6 ) 0:28:36
11 11   159 Reiner Nahrgang Andreas Schmitt J├Ârn Westphal SG Forst Hessen e.V. 4:48:14 0:30:53( 4 ) 2:46:15( 15 ) 1:31:06( 8 ) 0:32:26
12 12   147 Tom Dittrich Richard M├╝hle Phillip Schweichler DAS G├ľRLITZER ABI-TRIO 4:58:23 0:31:07( 6 ) 2:39:21( 12 ) 1:47:55( 24 ) 0:42:35
13 13   174 J├Ârg Eich Ralf Leupold Ralf Lutoschka Moritzburger TV 4:59:00 0:32:16( 8 ) 2:49:38( 18 ) 1:37:06( 13 ) 0:43:12
14 14   177 Reymond Kretschmer J├Ârn Gerber Ren├ę Frenzel   5:03:03 0:39:25( 20 ) 2:50:17( 20 ) 1:33:21( 10 ) 0:47:15
15 15   173 Jana H├Ąnsel Zenon Karczewski Heike Lutoschka Dresdner Trolle 5:03:53 0:35:15( 17 ) 2:48:58( 17 ) 1:39:40( 17 ) 0:48:05
16 16   140 Peter Brandt Sven Krause Karsten Lemm   5:11:26 0:47:21( 31 ) 2:43:37( 13 ) 1:40:28( 18 ) 0:55:38
17 17   145 Torsten Ciecinski Mirko Ciecinski Arndt Ciecinski Loose Brothers 5:11:31 0:36:27( 18 ) 2:45:58( 14 ) 1:49:06( 25 ) 0:55:43
18 18   176 Thomas Elpel Fabian T├╝rk Fabian Stagge HSV 2002 5:15:42 0:32:31( 10 ) 3:00:01( 23 ) 1:43:10( 22 ) 0:59:54
19 19   169 Jean Richter Thomas Steinm├╝ller Mario Ulbrich SG Aufbau Mitte Dresden 5:16:11 0:40:36( 22 ) 3:00:49( 25 ) 1:34:46( 12 ) 1:00:23
20 20   161 Rainer Assing Stefan Frischke Uwe Scholz Theater Junge Generation 5:19:09 0:28:35( 2 ) 2:49:49( 19 ) 2:00:45( 30 ) 1:03:21
21 21   149 Manfred Sch├╝tte Tino Sch├╝tte Marco Sch├╝tte Familie Sch├╝tte 5:20:13 0:45:26( 29 ) 2:57:30( 21 ) 1:37:17( 14 ) 1:04:25
22 22   141 J├Ârg Hanisch Uwe Herrbruck Falk Lau die Schinder 5:20:51 0:28:22( 1 ) 3:03:01( 27 ) 1:49:28( 26 ) 1:05:03
23 23   179 Sven M├╝tze Marita Rickers Roland Hilbenz Sportfreunde Ottendorf-Okrilla 5:21:26 0:40:43( 23 ) 3:02:39( 26 ) 1:38:04( 16 ) 1:05:38
24 24   172 Bruno Heimke Emilia Rudolf Heino Rudolf TV Dresden 5:23:53 0:41:21( 24 ) 3:00:13( 24 ) 1:42:19( 21 ) 1:08:05
25 25   178 Bettina Sickert Jens Neumann Lars Richter-K├Ąstner DLRG Bezirk Dresden 5:26:49 0:43:02( 25 ) 3:05:45( 28 ) 1:38:02( 15 ) 1:11:01
26 26   156 Falk Ballay Kai L├Âwenbr├╝ck Sebastian Weigl Sporting Harmonists 5:35:39 0:44:33( 27 ) 2:48:28( 16 ) 2:02:38( 31 ) 1:19:51
27 27   154 Anne Braun Dietmar Jahn Reinhard Wobst Sanit├Ątshaus Braun Zittau 5:35:59 0:49:45( 32 ) 2:59:20( 22 ) 1:46:54( 23 ) 1:20:11
28 28   168 Gaston Hoffmann Jens Viehweg Gerome Weber   5:39:26 0:51:06( 33 ) 3:06:11( 29 ) 1:42:09( 20 ) 1:23:38
29 29   148 Jan En├čle Karen Isaak Anett Isaak fit zu dritt 5:45:27 0:33:33( 14 ) 3:13:57( 34 ) 1:57:57( 29 ) 1:29:39
30 30   152 Holger A├čmann Hans-J├╝rgen A├čmann Birgit Rieger   5:47:55 0:45:24( 28 ) 3:08:01( 31 ) 1:54:30( 27 ) 1:32:07
31 31   146 K├╝hnast Heiko Budde Enrico Schramm   5:50:53 0:53:10( 34 ) 2:29:56( 4 ) 2:27:47( 36 ) 1:35:05
32 32   163 J├╝rgen Kellner Heike Sesselmann Sabine Franz RVC Altenkunstadt - Fun 5:58:36 0:37:34( 19 ) 3:13:30( 32 ) 2:07:32( 34 ) 1:42:48
33 33   155 Martina B├Ąck Robert Hartung Conny Liebscher   6:01:24 0:32:34( 11 ) 3:06:19( 30 ) 2:22:31( 35 ) 1:45:36
34 34   143 Harald Bruck Regina Herrmann Christiane Kronbach elbion AG 6:17:46 1:00:37( 35 ) 3:13:38( 33 ) 2:03:31( 32 ) 2:01:58
35 35   158 Almut Bickhardt Jakob Bickhardt Frieder Bickhardt   6:29:53 0:46:21( 30 ) 3:45:56( 35 ) 1:57:36( 28 ) 2:14:05
36   1 170 Corinna Borch Grit Koalick Cornelia Papsdorf   6:57:04 1:04:07( 36 ) 3:48:27( 36 ) 2:04:30( 33 ) 2:41:16
      142 Daniel Clau├č Lutz Clau├č Uwe Clau├č   0:00:00 0:00:00 0:00:00 0:00:00 0:00:00
      144 Roland Hilbenz Heinrich Hoffmann Marita Rickers Spfr.Ottendorf-Okrilla 0:00:00 0:00:00 0:00:00 0:00:00 0:00:00
      150 Falk Baumg├Ąrtel Maik Fuzik Marco Pohling   0:00:00 0:00:00 0:00:00 0:00:00 0:00:00
      151 Michael Eckstein Johannes Ehrlich Alexander Lehn Forza 3m5 0:00:00 0:00:00 0:00:00 0:00:00 0:00:00
(c) 1990-2020 Blue Wonder Sport Promotion - Andreas Burow - Zeitnahme & Auswertung - www.Triathlon-Service.de